Time;durP1;ratioP1;P1;durP2;ratioP2;P2;SDS_P1;SDS_P2;PMS_P1;PMS_P2;Temp;Humidity;BMP_temperature;BMP_pressure;BME280_temperature;BME280_humidity;BME280_pressure;Samples;Min_cycle;Max_cycle;Signal;HPM_P1;HPM_P2
2023/12/06 05:03:34;;;;;;;6.63;3.08;;;;;;;;;;7612907;19;20998;-71
2023/12/06 05:06:07;;;;;;;6.75;3.80;;;;;;;;;;7627620;19;20018;-71
2023/12/06 05:08:39;;;;;;;6.10;3.78;;;;;;;;;;7633362;19;20022;-72
2023/12/06 05:11:12;;;;;;;5.43;3.20;;;;;;;;;;7629652;19;20018;-71
2023/12/06 05:13:46;;;;;;;7.65;2.30;;;;;;;;;;7643481;19;20049;-72
2023/12/06 05:16:18;;;;;;;7.68;3.65;;;;;;;;;;7653932;19;20014;-71
2023/12/06 05:18:51;;;;;;;3.30;2.50;;;;;;;;;;7614144;19;20838;-70
2023/12/06 05:21:24;;;;;;;5.10;3.03;;;;;;;;;;7635404;19;20267;-72
2023/12/06 05:23:56;;;;;;;5.70;2.38;;;;;;;;;;7636528;19;20007;-72
2023/12/06 05:26:29;;;;;;;2.92;1.88;;;;;;;;;;7629222;19;20040;-71
2023/12/06 05:29:03;;;;;;;8.30;2.20;;;;;;;;;;7616061;19;20560;-73
2023/12/06 05:31:35;;;;;;;4.95;2.67;;;;;;;;;;7619637;19;20810;-72
2023/12/06 05:34:09;;;;;;;3.00;1.77;;;;;;;;;;7642702;19;20014;-71
2023/12/06 05:36:41;;;;;;;5.20;3.00;;;;;;;;;;7625567;19;20021;-71
2023/12/06 05:39:15;;;;;;;4.65;1.67;;;;;;;;;;7630102;19;20050;-71
2023/12/06 05:41:48;;;;;;;5.17;2.23;;;;;;;;;;7643427;19;20021;-72
2023/12/06 05:44:20;;;;;;;5.88;2.05;;;;;;;;;;7631709;19;20059;-71
2023/12/06 05:46:53;;;;;;;2.72;1.70;;;;;;;;;;7641338;19;20014;-72
2023/12/06 05:49:26;;;;;;;7.27;2.57;;;;;;;;;;7624823;19;20496;-72
2023/12/06 05:51:59;;;;;;;3.75;2.00;;;;;;;;;;7637915;19;20027;-73
2023/12/06 05:54:32;;;;;;;;;;;;;;;;;;7646225;19;20090;-71
2023/12/06 05:57:06;;;;;;;9.23;2.05;;;;;;;;;;7622394;19;20822;-73
2023/12/06 05:59:39;;;;;;;3.20;2.15;;;;;;;;;;7630798;19;20017;-72
2023/12/06 06:02:12;;;;;;;5.90;1.75;;;;;;;;;;7604364;19;20014;-71
2023/12/06 06:04:45;;;;;;;2.87;1.90;;;;;;;;;;7638301;19;20010;-71
2023/12/06 06:07:18;;;;;;;2.50;1.45;;;;;;;;;;7620164;19;20081;-70
2023/12/06 06:09:51;;;;;;;3.03;1.83;;;;;;;;;;7620726;19;20010;-71
2023/12/06 06:12:33;;;;;;;3.15;1.75;;;;;;;;;;7619881;19;20029;-73
2023/12/06 06:15:08;;;;;;;2.28;1.77;;;;;;;;;;7557839;19;20052;-72
2023/12/06 06:17:41;;;;;;;5.47;1.40;;;;;;;;;;7564438;19;20026;-71
2023/12/06 06:20:14;;;;;;;2.00;1.67;;;;;;;;;;7584987;19;20042;-72
2023/12/06 06:22:47;;;;;;;3.43;2.10;;;;;;;;;;7602012;19;20017;-72
2023/12/06 06:25:21;;;;;;;3.47;2.03;;;;;;;;;;7593009;19;20283;-72
2023/12/06 06:27:54;;;;;;;2.13;1.60;;;;;;;;;;7595001;19;24355;-72
2023/12/06 06:30:27;;;;;;;3.15;1.67;;;;;;;;;;7582939;19;20581;-71
2023/12/06 06:33:00;;;;;;;3.85;1.98;;;;;;;;;;7597289;19;20021;-71
2023/12/06 06:35:33;;;;;;;4.82;2.00;;;;;;;;;;7571121;19;20371;-70
2023/12/06 06:38:07;;;;;;;3.20;1.90;;;;;;;;;;7582731;19;20461;-71
2023/12/06 06:40:39;;;;;;;3.83;1.92;;;;;;;;;;7599548;19;20421;-71
2023/12/06 06:43:12;;;;;;;3.25;1.63;;;;;;;;;;7601467;19;20011;-71
2023/12/06 06:45:45;;;;;;;;;;;;;;;;;;7605120;19;20011;-71
2023/12/06 06:48:18;;;;;;;3.28;1.88;;;;;;;;;;7593645;19;19926;-71
2023/12/06 06:50:52;;;;;;;4.13;2.13;;;;;;;;;;7604774;19;20055;-71
2023/12/06 06:53:25;;;;;;;2.35;1.92;;;;;;;;;;7602775;19;20030;-71
2023/12/06 06:55:58;;;;;;;5.65;2.10;;;;;;;;;;7600300;19;21010;-73
2023/12/06 06:58:30;;;;;;;3.78;2.50;;;;;;;;;;7603587;19;20794;-74
2023/12/06 07:01:05;;;;;;;2.33;1.77;;;;;;;;;;7602400;19;20026;-72
2023/12/06 07:03:38;;;;;;;5.13;2.30;;;;;;;;;;7604814;19;20038;-72
2023/12/06 07:06:11;;;;;;;2.30;1.90;;;;;;;;;;7600312;19;20584;-72
2023/12/06 07:08:44;;;;;;;2.63;2.20;;;;;;;;;;7596297;19;20014;-72
2023/12/06 07:11:18;;;;;;;3.22;1.80;;;;;;;;;;7598006;19;20423;-73
2023/12/06 07:13:51;;;;;;;4.78;2.13;;;;;;;;;;7604223;19;20033;-71
2023/12/06 07:16:24;;;;;;;3.87;1.93;;;;;;;;;;7597300;19;21094;-71
2023/12/06 07:18:58;;;;;;;2.65;1.83;;;;;;;;;;7602078;19;20044;-71
2023/12/06 07:21:31;;;;;;;3.10;1.63;;;;;;;;;;7600039;19;20060;-71
2023/12/06 07:24:03;;;;;;;4.68;2.58;;;;;;;;;;7602502;19;20026;-72
2023/12/06 07:26:36;;;;;;;3.15;2.00;;;;;;;;;;7599686;19;20006;-71
2023/12/06 07:29:09;;;;;;;5.85;2.20;;;;;;;;;;7604014;19;20010;-72
2023/12/06 07:31:42;;;;;;;2.13;1.50;;;;;;;;;;7598597;19;20033;-72
2023/12/06 07:34:17;;;;;;;4.53;1.88;;;;;;;;;;7598074;19;20018;-71
2023/12/06 07:36:55;;;;;;;3.72;1.80;;;;;;;;;;7602698;19;20108;-71
2023/12/06 07:39:28;;;;;;;4.70;1.93;;;;;;;;;;7594042;19;20018;-71
2023/12/06 07:42:01;;;;;;;4.15;1.83;;;;;;;;;;7603381;19;20022;-71
2023/12/06 07:44:34;;;;;;;2.13;1.67;;;;;;;;;;7598984;19;20022;-72
2023/12/06 07:47:06;;;;;;;2.50;1.70;;;;;;;;;;7598389;19;20029;-71
2023/12/06 07:49:39;;;;;;;3.17;1.80;;;;;;;;;;7594700;19;20943;-71
2023/12/06 07:52:12;;;;;;;1.88;1.38;;;;;;;;;;7584039;19;21044;-71
2023/12/06 07:54:46;;;;;;;2.57;1.70;;;;;;;;;;7595047;19;20535;-71
2023/12/06 07:57:19;;;;;;;6.28;2.30;;;;;;;;;;7598516;19;20677;-72
2023/12/06 07:59:53;;;;;;;8.52;2.58;;;;;;;;;;7601886;19;20050;-72
2023/12/06 08:02:26;;;;;;;4.78;2.28;;;;;;;;;;7584002;19;20050;-71
2023/12/06 08:05:02;;;;;;;9.75;3.10;;;;;;;;;;7593420;19;20074;-72
2023/12/06 08:07:36;;;;;;;3.22;2.25;;;;;;;;;;7596637;19;20030;-71
2023/12/06 08:10:12;;;;;;;6.95;2.08;;;;;;;;;;7597217;19;20022;-70
2023/12/06 08:12:45;;;;;;;5.47;1.50;;;;;;;;;;7600358;19;20381;-72
2023/12/06 08:15:21;;;;;;;2.70;1.70;;;;;;;;;;7605039;19;20037;-71
2023/12/06 08:17:53;;;;;;;2.72;1.60;;;;;;;;;;7609100;19;20030;-72
2023/12/06 08:20:26;;;;;;;5.72;1.92;;;;;;;;;;7594937;19;20578;-71
2023/12/06 08:22:59;;;;;;;4.87;2.60;;;;;;;;;;7604652;19;20011;-71
2023/12/06 08:25:31;;;;;;;10.97;4.60;;;;;;;;;;7601860;19;20060;-71
2023/12/06 08:28:04;;;;;;;11.05;3.90;;;;;;;;;;7603453;19;20010;-71
2023/12/06 08:30:37;;;;;;;9.38;4.68;;;;;;;;;;7587480;19;20019;-71
2023/12/06 08:33:11;;;;;;;6.18;3.08;;;;;;;;;;7603922;19;20017;-71
2023/12/06 08:35:44;;;;;;;3.60;2.00;;;;;;;;;;7598240;19;20035;-72
2023/12/06 08:38:18;;;;;;;3.78;2.15;;;;;;;;;;7591448;19;20025;-72
2023/12/06 08:40:50;;;;;;;4.18;1.90;;;;;;;;;;7586772;19;20942;-71
2023/12/06 08:43:23;;;;;;;3.05;1.80;;;;;;;;;;7590989;19;20013;-71
2023/12/06 15:01:08;;;;;;;8.43;4.10;;;;;;;;;;7595567;19;20365;-71
2023/12/06 15:03:42;;;;;;;6.57;4.90;;;;;;;;;;7618891;19;20018;-72
2023/12/06 15:06:14;;;;;;;7.78;5.53;;;;;;;;;;7595055;19;20021;-72
2023/12/06 15:08:47;;;;;;;9.13;6.75;;;;;;;;;;7574577;19;20025;-73
2023/12/06 15:11:20;;;;;;;7.67;4.93;;;;;;;;;;7595839;19;20060;-73
2023/12/06 15:13:52;;;;;;;11.23;5.47;;;;;;;;;;7574389;19;20014;-72
2023/12/06 15:16:26;;;;;;;8.30;5.18;;;;;;;;;;7525141;19;20880;-72
2023/12/06 15:18:59;;;;;;;10.50;6.38;;;;;;;;;;7506835;19;20065;-72
2023/12/06 15:21:32;;;;;;;6.63;4.35;;;;;;;;;;7556332;19;20014;-71
2023/12/06 15:24:05;;;;;;;;;;;;;;;;;;7588967;19;20018;-70
2023/12/06 15:26:38;;;;;;;8.85;5.28;;;;;;;;;;7585787;19;19947;-71
2023/12/06 15:29:10;;;;;;;10.18;5.63;;;;;;;;;;7577656;19;20014;-71
2023/12/06 15:31:45;;;;;;;8.60;5.30;;;;;;;;;;7558890;19;20708;-70
2023/12/06 15:34:18;;;;;;;10.48;6.45;;;;;;;;;;7556240;19;20010;-71
2023/12/06 15:36:53;;;;;;;11.93;7.15;;;;;;;;;;7569314;19;21075;-71
2023/12/06 15:39:27;;;;;;;10.25;5.93;;;;;;;;;;7559356;19;20112;-71
2023/12/06 15:42:00;;;;;;;9.47;5.67;;;;;;;;;;7572441;19;20010;-72
2023/12/06 15:44:33;;;;;;;10.10;6.35;;;;;;;;;;7592018;19;20526;-72
2023/12/06 15:47:06;;;;;;;13.55;6.10;;;;;;;;;;7603463;19;21083;-72
2023/12/06 15:49:40;;;;;;;14.43;7.97;;;;;;;;;;7594069;19;20022;-71
2023/12/06 15:52:14;;;;;;;9.82;6.68;;;;;;;;;;7564628;19;20018;-73
2023/12/06 15:54:47;;;;;;;9.05;6.32;;;;;;;;;;7584636;19;20746;-73
2023/12/06 15:57:20;;;;;;;10.40;6.40;;;;;;;;;;7609450;19;20014;-73
2023/12/06 15:59:53;;;;;;;8.65;5.50;;;;;;;;;;7581829;19;20372;-73
2023/12/06 16:02:25;;;;;;;11.67;6.27;;;;;;;;;;7572541;19;20409;-73
2023/12/06 16:04:58;;;;;;;11.27;6.63;;;;;;;;;;7594848;19;20006;-71
2023/12/06 16:07:31;;;;;;;10.00;6.60;;;;;;;;;;7564075;19;20011;-74
2023/12/06 16:10:04;;;;;;;12.63;6.55;;;;;;;;;;7528746;19;20688;-72
2023/12/06 16:12:40;;;;;;;11.98;6.72;;;;;;;;;;7526303;19;20094;-74
2023/12/06 16:15:13;;;;;;;9.93;6.65;;;;;;;;;;7532985;19;20021;-74
2023/12/06 16:17:47;;;;;;;12.93;6.93;;;;;;;;;;7553611;19;20037;-72
2023/12/06 16:20:20;;;;;;;11.80;7.60;;;;;;;;;;7548403;19;20098;-74
2023/12/06 16:22:52;;;;;;;14.93;7.77;;;;;;;;;;7524643;19;20097;-73
2023/12/06 16:25:26;;;;;;;10.35;6.70;;;;;;;;;;7551342;19;20014;-72
2023/12/06 16:28:00;;;;;;;;;;;;;;;;;;7543069;19;20569;-72
2023/12/06 16:30:37;;;;;;;13.57;8.45;;;;;;;;;;7531495;19;20394;-73
2023/12/06 16:33:10;;;;;;;15.73;8.18;;;;;;;;;;7499021;19;20006;-73
2023/12/06 16:35:43;;;;;;;14.15;8.23;;;;;;;;;;7560676;19;20685;-74
2023/12/06 16:38:18;;;;;;;15.68;8.88;;;;;;;;;;7549512;19;20018;-74
2023/12/06 16:40:51;;;;;;;16.60;8.40;;;;;;;;;;7576383;19;20074;-73
2023/12/06 16:43:25;;;;;;;12.40;6.60;;;;;;;;;;7560894;19;21019;-72
2023/12/06 16:45:58;;;;;;;16.17;9.40;;;;;;;;;;7554532;19;21251;-72
2023/12/06 16:48:31;;;;;;;18.97;11.17;;;;;;;;;;7571049;19;20961;-73
2023/12/06 16:51:04;;;;;;;;;;;;;;;;;;7555818;19;20022;-71
2023/12/06 16:53:37;;;;;;;16.83;8.82;;;;;;;;;;7579412;19;20017;-71
2023/12/06 16:56:10;;;;;;;14.25;8.35;;;;;;;;;;7575757;19;20416;-71
2023/12/06 16:58:43;;;;;;;12.55;8.68;;;;;;;;;;7553482;19;20025;-72
2023/12/06 17:01:15;;;;;;;17.63;10.75;;;;;;;;;;7558338;19;20025;-72
2023/12/06 17:03:48;;;;;;;13.77;9.13;;;;;;;;;;7578391;19;20019;-72
2023/12/06 17:06:21;;;;;;;14.95;9.40;;;;;;;;;;7560123;19;20313;-72
2023/12/06 17:08:54;;;;;;;14.00;8.27;;;;;;;;;;7557162;19;20695;-72
2023/12/06 17:11:27;;;;;;;16.23;9.68;;;;;;;;;;7558995;19;20684;-72
2023/12/06 17:14:00;;;;;;;16.60;9.13;;;;;;;;;;7548765;19;20023;-71
2023/12/06 17:16:32;;;;;;;16.05;9.80;;;;;;;;;;7550110;19;20282;-71
2023/12/06 17:19:06;;;;;;;19.33;10.30;;;;;;;;;;7536027;19;20010;-71
2023/12/06 17:21:41;;;;;;;18.73;11.55;;;;;;;;;;7558647;19;20014;-72
2023/12/06 17:24:14;;;;;;;18.33;10.63;;;;;;;;;;7569072;19;20019;-72
2023/12/06 17:26:47;;;;;;;16.42;10.80;;;;;;;;;;7558994;19;20022;-70
2023/12/06 17:29:24;;;;;;;25.17;11.63;;;;;;;;;;7569474;19;20015;-73
2023/12/06 17:31:57;;;;;;;20.17;11.57;;;;;;;;;;7583125;19;20022;-72
2023/12/06 17:34:31;;;;;;;20.70;11.57;;;;;;;;;;7568161;19;20586;-72
2023/12/06 17:37:04;;;;;;;23.23;11.18;;;;;;;;;;7548580;19;20379;-73
2023/12/06 17:39:39;;;;;;;17.58;11.65;;;;;;;;;;7550376;19;20657;-72
2023/12/06 17:42:12;;;;;;;20.52;11.68;;;;;;;;;;7564636;19;20951;-71
2023/12/06 17:44:45;;;;;;;18.85;12.32;;;;;;;;;;7560247;19;21379;-71
2023/12/06 17:47:18;;;;;;;24.23;14.37;;;;;;;;;;7556609;19;20010;-73
2023/12/06 17:49:51;;;;;;;20.98;13.13;;;;;;;;;;7572000;19;20303;-72
2023/12/06 17:52:23;;;;;;;28.23;11.83;;;;;;;;;;7540071;19;20010;-72
2023/12/06 17:54:56;;;;;;;20.88;12.43;;;;;;;;;;7554128;19;20380;-72
2023/12/06 17:57:29;;;;;;;20.10;12.40;;;;;;;;;;7545990;19;22312;-71
2023/12/06 18:00:02;;;;;;;23.25;13.10;;;;;;;;;;7551323;19;20597;-70
2023/12/06 18:02:41;;;;;;;23.20;13.02;;;;;;;;;;7555947;19;20514;-70
2023/12/06 18:05:13;;;;;;;21.95;13.18;;;;;;;;;;7558118;19;20018;-71
2023/12/06 18:07:47;;;;;;;20.73;13.03;;;;;;;;;;7564382;19;20039;-71
2023/12/06 18:10:25;;;;;;;24.08;13.40;;;;;;;;;;7542699;19;21887;-74
2023/12/06 18:12:58;;;;;;;22.52;13.48;;;;;;;;;;7563221;19;20011;-73
2023/12/06 18:15:31;;;;;;;25.70;14.27;;;;;;;;;;7568193;19;20590;-71
2023/12/06 18:18:04;;;;;;;21.77;13.50;;;;;;;;;;7563829;19;20307;-72
2023/12/06 18:20:37;;;;;;;21.40;12.40;;;;;;;;;;7553937;19;23282;-72
2023/12/06 18:23:10;;;;;;;21.35;13.43;;;;;;;;;;7578781;19;20275;-72
2023/12/06 18:25:43;;;;;;;24.25;14.30;;;;;;;;;;7567734;19;20011;-72
2023/12/06 18:28:16;;;;;;;23.38;14.10;;;;;;;;;;7584828;19;20034;-73
2023/12/06 18:30:49;;;;;;;24.17;14.37;;;;;;;;;;7574927;19;21006;-73
2023/12/06 18:33:22;;;;;;;;;;;;;;;;;;7575131;19;21135;-71
2023/12/06 18:35:56;;;;;;;25.13;13.93;;;;;;;;;;7575120;19;19919;-71
2023/12/06 18:38:28;;;;;;;28.35;15.20;;;;;;;;;;7550806;19;20614;-72
2023/12/06 18:41:01;;;;;;;26.23;14.97;;;;;;;;;;7593432;19;20039;-72
2023/12/06 18:43:34;;;;;;;29.55;15.07;;;;;;;;;;7567245;19;20026;-72
2023/12/06 18:46:07;;;;;;;25.35;13.10;;;;;;;;;;7547367;19;22429;-72
2023/12/06 18:48:40;;;;;;;24.37;14.23;;;;;;;;;;7553848;19;20412;-72
2023/12/06 18:51:22;;;;;;;21.85;13.10;;;;;;;;;;7563276;19;21372;-72
2023/12/06 18:53:55;;;;;;;21.15;11.70;;;;;;;;;;7586922;19;20026;-72
2023/12/06 18:56:29;;;;;;;22.35;11.68;;;;;;;;;;7578516;19;20030;-73
2023/12/06 18:59:03;;;;;;;21.40;12.18;;;;;;;;;;7585358;19;20010;-73
2023/12/06 19:01:36;;;;;;;21.95;11.20;;;;;;;;;;7578307;19;20578;-73
2023/12/06 19:04:09;;;;;;;22.23;11.60;;;;;;;;;;7587852;19;20579;-73
2023/12/06 19:06:42;;;;;;;27.05;14.55;;;;;;;;;;7578510;19;20018;-73
2023/12/06 19:09:14;;;;;;;19.93;12.30;;;;;;;;;;7592461;19;20056;-73
2023/12/06 19:11:48;;;;;;;22.23;12.82;;;;;;;;;;7574427;19;20287;-73
2023/12/06 19:14:22;;;;;;;21.67;12.77;;;;;;;;;;7573840;19;20651;-72
2023/12/06 19:16:54;;;;;;;22.88;12.88;;;;;;;;;;7571532;19;20018;-72
2023/12/06 19:19:27;;;;;;;19.57;12.83;;;;;;;;;;7572203;19;20022;-72
2023/12/06 19:22:01;;;;;;;23.50;13.88;;;;;;;;;;7581233;19;20384;-72
2023/12/06 19:24:34;;;;;;;24.13;13.48;;;;;;;;;;7587767;19;20025;-72
2023/12/06 19:27:08;;;;;;;23.38;13.52;;;;;;;;;;7586517;19;20357;-72
2023/12/06 19:29:41;;;;;;;22.23;12.90;;;;;;;;;;7552611;19;20025;-71
2023/12/06 19:32:14;;;;;;;22.02;12.73;;;;;;;;;;7559921;19;20015;-72
2023/12/06 19:34:47;;;;;;;19.25;12.02;;;;;;;;;;7559235;19;20594;-72
2023/12/06 19:37:23;;;;;;;19.67;11.53;;;;;;;;;;7581157;19;20011;-72
2023/12/06 19:39:58;;;;;;;21.38;13.10;;;;;;;;;;7583592;19;20022;-72
2023/12/06 19:42:30;;;;;;;;;;;;;;;;;;7582768;19;20010;-72
2023/12/06 19:45:03;;;;;;;19.05;11.68;;;;;;;;;;7576500;19;19922;-73
2023/12/06 19:47:36;;;;;;;19.80;12.10;;;;;;;;;;7570502;19;20045;-71
2023/12/06 19:50:09;;;;;;;22.85;12.85;;;;;;;;;;7583652;19;20006;-72
2023/12/06 19:52:42;;;;;;;26.77;14.18;;;;;;;;;;7586611;19;20039;-72
2023/12/06 19:55:16;;;;;;;21.48;13.23;;;;;;;;;;7595538;19;20039;-72
2023/12/06 19:57:48;;;;;;;26.67;15.57;;;;;;;;;;7573458;19;20022;-71
2023/12/06 20:00:21;;;;;;;26.37;15.90;;;;;;;;;;7578776;19;20018;-72
2023/12/06 20:02:54;;;;;;;23.98;14.35;;;;;;;;;;7573855;19;20018;-73
2023/12/06 20:05:26;;;;;;;28.40;15.70;;;;;;;;;;7553496;19;20508;-71
2023/12/06 20:07:59;;;;;;;24.13;14.17;;;;;;;;;;7597821;19;20535;-71
2023/12/06 20:10:32;;;;;;;34.15;18.98;;;;;;;;;;7555504;19;20132;-74
